createdAt,value
2022-11-18T00:01:07.933Z,11.18
2022-11-18T00:03:10.932Z,11.20
2022-11-18T00:05:14.098Z,11.18
2022-11-18T00:07:17.232Z,11.18
2022-11-18T00:09:20.552Z,11.17
2022-11-18T00:11:42.420Z,11.16
2022-11-18T00:14:02.994Z,11.17
2022-11-18T00:16:09.160Z,11.19
2022-11-18T00:18:12.111Z,11.18
2022-11-18T00:20:15.764Z,11.18
2022-11-18T00:22:18.850Z,11.18
2022-11-18T00:24:22.533Z,11.16
2022-11-18T00:26:25.595Z,11.14
2022-11-18T00:28:28.610Z,11.12
2022-11-18T00:30:31.595Z,11.14
2022-11-18T00:32:35.982Z,11.13
2022-11-18T00:34:39.136Z,11.13
2022-11-18T00:36:42.937Z,11.13
2022-11-18T00:38:46.280Z,11.12
2022-11-18T00:40:49.224Z,11.11
2022-11-18T00:42:51.224Z,11.10
2022-11-18T00:44:54.346Z,11.11
2022-11-18T00:46:57.315Z,11.12
2022-11-18T00:49:01.839Z,11.11
2022-11-18T00:51:11.720Z,11.10
2022-11-18T00:53:14.727Z,11.12
2022-11-18T00:55:17.775Z,11.14
2022-11-18T00:57:20.801Z,11.15
2022-11-18T00:59:23.833Z,11.16
2022-11-18T01:01:27.295Z,11.17
2022-11-18T01:03:30.663Z,11.18
2022-11-18T01:05:36.377Z,11.19
2022-11-18T01:07:39.517Z,11.17
2022-11-18T01:09:42.551Z,11.16
2022-11-18T01:12:03.019Z,11.16
2022-11-18T01:14:06.031Z,11.17
2022-11-18T01:16:09.020Z,11.17
2022-11-18T01:18:12.231Z,11.17
2022-11-18T01:20:15.917Z,11.18
2022-11-18T01:22:20.293Z,11.17
2022-11-18T01:24:23.690Z,11.17
2022-11-18T01:26:26.749Z,11.17
2022-11-18T01:28:29.837Z,11.15
2022-11-18T01:30:35.075Z,11.14
2022-11-18T01:32:38.101Z,11.12
2022-11-18T01:34:41.073Z,11.12
2022-11-18T01:36:44.134Z,11.11
2022-11-18T01:38:48.727Z,11.08
2022-11-18T01:40:51.827Z,11.04
2022-11-18T01:42:54.844Z,11.01
2022-11-18T01:45:09.736Z,10.96
2022-11-18T01:47:13.341Z,10.95
2022-11-18T01:49:16.875Z,10.95
2022-11-18T01:51:23.432Z,10.95
2022-11-18T01:53:28.496Z,10.95
2022-11-18T01:55:35.235Z,10.95
2022-11-18T01:57:38.201Z,10.96
2022-11-18T01:59:42.665Z,10.94
2022-11-18T02:01:45.836Z,10.93
2022-11-18T02:03:49.854Z,10.93
2022-11-18T02:05:53.717Z,10.93
2022-11-18T02:07:57.746Z,10.93
2022-11-18T02:10:03.807Z,10.93
2022-11-18T02:12:09.417Z,10.93
2022-11-18T02:14:12.575Z,10.94
2022-11-18T02:16:17.115Z,10.94
2022-11-18T02:18:28.528Z,10.94
2022-11-18T02:20:33.362Z,10.93
2022-11-18T02:22:48.593Z,10.94
2022-11-18T02:24:57.491Z,10.93
2022-11-18T02:27:36.142Z,10.94
2022-11-18T02:29:44.148Z,10.92
2022-11-18T02:31:52.650Z,10.95
2022-11-18T02:33:57.786Z,10.93
2022-11-18T02:36:06.737Z,10.93
2022-11-18T02:38:11.602Z,10.92
2022-11-18T02:40:17.559Z,10.90
2022-11-18T02:42:20.964Z,10.89
2022-11-18T02:44:26.294Z,10.88
2022-11-18T02:46:34.081Z,10.89
2022-11-18T02:48:41.389Z,10.91
2022-11-18T02:50:45.954Z,10.92
2022-11-18T02:52:52.908Z,10.92
2022-11-18T02:54:56.738Z,10.93
2022-11-18T02:57:00.258Z,10.93
2022-11-18T02:59:04.087Z,10.94
2022-11-18T03:01:07.301Z,10.96
2022-11-18T03:03:28.160Z,10.96
2022-11-18T03:05:37.541Z,10.96
2022-11-18T03:07:42.570Z,10.95
2022-11-18T03:09:48.338Z,10.92
2022-11-18T03:11:56.925Z,10.93
2022-11-18T03:14:09.483Z,10.92
2022-11-18T03:16:15.781Z,10.91
2022-11-18T03:18:26.509Z,10.90
2022-11-18T03:20:32.093Z,10.90
2022-11-18T03:22:40.257Z,10.88
2022-11-18T03:24:46.938Z,10.86
2022-11-18T03:26:52.457Z,10.84
2022-11-18T03:28:58.054Z,10.84
2022-11-18T03:31:04.442Z,10.85
2022-11-18T03:33:11.662Z,10.85
2022-11-18T03:35:19.272Z,10.86
2022-11-18T03:37:23.207Z,10.87
2022-11-18T03:39:27.245Z,10.89
2022-11-18T03:41:34.151Z,10.90
2022-11-18T03:43:39.617Z,10.90
2022-11-18T03:45:45.587Z,10.89
2022-11-18T03:47:51.514Z,10.89
2022-11-18T03:49:57.714Z,10.87
2022-11-18T03:52:07.703Z,10.90
2022-11-18T03:54:13.515Z,10.89
2022-11-18T03:56:18.058Z,10.85
2022-11-18T03:58:24.642Z,10.84
2022-11-18T04:00:28.630Z,10.74
2022-11-18T04:02:31.969Z,10.65
2022-11-18T04:04:35.115Z,10.57
2022-11-18T04:06:39.910Z,10.47
2022-11-18T04:08:45.003Z,10.34
2022-11-18T04:10:52.071Z,10.18
2022-11-18T04:13:05.915Z,10.19
2022-11-18T04:15:10.454Z,10.22
2022-11-18T04:17:14.726Z,10.24
2022-11-18T04:19:17.799Z,10.26
2022-11-18T04:21:20.765Z,10.31
2022-11-18T04:23:23.904Z,10.32
2022-11-18T04:25:28.381Z,10.34
2022-11-18T04:27:31.420Z,10.35
2022-11-18T04:29:35.221Z,10.37
2022-11-18T04:31:38.258Z,10.39
2022-11-18T04:33:41.198Z,10.41
2022-11-18T04:35:44.510Z,10.41
2022-11-18T04:37:47.450Z,10.41
2022-11-18T04:39:50.863Z,10.40
2022-11-18T04:41:56.956Z,10.41
2022-11-18T04:43:59.992Z,10.40
2022-11-18T04:46:03.115Z,10.42
2022-11-18T04:48:06.845Z,10.42
2022-11-18T04:50:10.582Z,10.42
2022-11-18T04:52:13.609Z,10.44
2022-11-18T04:54:17.335Z,10.42
2022-11-18T04:56:20.406Z,10.43
2022-11-18T04:58:24.950Z,10.42
2022-11-18T05:00:28.007Z,10.40
2022-11-18T05:02:30.971Z,10.41
2022-11-18T05:04:35.398Z,10.44
2022-11-18T05:06:38.408Z,10.45
2022-11-18T05:08:41.350Z,10.45
2022-11-18T05:10:44.439Z,10.44
2022-11-18T05:12:49.707Z,10.44
2022-11-18T05:14:54.128Z,10.44
2022-11-18T05:16:58.683Z,10.42
2022-11-18T05:19:03.233Z,10.41
2022-11-18T05:21:06.534Z,10.40
2022-11-18T05:23:09.719Z,10.39
2022-11-18T05:25:12.729Z,10.38
2022-11-18T05:27:16.324Z,10.39
2022-11-18T05:29:20.245Z,10.38
2022-11-18T05:31:24.788Z,10.37
2022-11-18T05:33:27.908Z,10.35
2022-11-18T05:35:31.337Z,10.34
2022-11-18T05:37:34.718Z,10.32
2022-11-18T05:39:37.831Z,10.32
2022-11-18T05:41:58.345Z,10.28
2022-11-18T05:44:01.799Z,10.31
2022-11-18T05:46:05.279Z,10.31
2022-11-18T05:48:09.728Z,10.32
2022-11-18T05:50:16.046Z,10.31
2022-11-18T05:52:20.528Z,10.27
2022-11-18T05:54:24.058Z,10.22
2022-11-18T05:56:30.051Z,10.21
2022-11-18T05:58:33.126Z,10.16
2022-11-18T06:00:36.293Z,10.11
2022-11-18T06:02:39.339Z,10.10
2022-11-18T06:04:46.461Z,10.08
2022-11-18T06:06:50.651Z,10.11
2022-11-18T06:08:56.910Z,10.13
2022-11-18T06:11:00.346Z,10.14
2022-11-18T06:13:06.643Z,10.15
2022-11-18T06:15:14.745Z,10.18
2022-11-18T06:17:19.581Z,10.19
2022-11-18T06:19:22.944Z,10.21
2022-11-18T06:21:27.450Z,10.22
2022-11-18T06:23:32.551Z,10.24
2022-11-18T06:25:38.681Z,10.25
2022-11-18T06:27:42.239Z,10.27
2022-11-18T06:29:45.334Z,10.30
2022-11-18T06:31:48.377Z,10.32
2022-11-18T06:33:51.419Z,10.33
2022-11-18T06:35:54.467Z,10.33
2022-11-18T06:37:58.899Z,10.33
2022-11-18T06:40:02.002Z,10.33
2022-11-18T06:42:05.245Z,10.32
2022-11-18T06:44:07.335Z,10.32
2022-11-18T06:46:29.902Z,10.31
2022-11-18T06:48:32.937Z,10.30
2022-11-18T06:50:35.919Z,10.31
2022-11-18T06:52:39.635Z,10.30
2022-11-18T06:54:44.228Z,10.31
2022-11-18T06:56:47.306Z,10.32
2022-11-18T06:58:54.340Z,10.32
2022-11-18T07:00:57.419Z,10.32
2022-11-18T07:03:00.489Z,10.33
2022-11-18T07:05:03.656Z,10.32
2022-11-18T07:07:06.884Z,10.30
2022-11-18T07:09:10.045Z,10.33
2022-11-18T07:11:16.681Z,10.34
2022-11-18T07:13:19.761Z,10.35
2022-11-18T07:15:22.815Z,10.35
2022-11-18T07:17:26.506Z,10.35
2022-11-18T07:19:34.448Z,10.34
2022-11-18T07:21:39.541Z,10.35
2022-11-18T07:23:43.072Z,10.33
2022-11-18T07:25:46.885Z,10.32
2022-11-18T07:27:51.278Z,10.31
2022-11-18T07:29:54.324Z,10.32
2022-11-18T07:31:57.407Z,10.31
2022-11-18T07:34:00.636Z,10.26
2022-11-18T07:36:05.344Z,10.21
2022-11-18T07:38:08.372Z,10.21
2022-11-18T07:40:11.854Z,10.20
2022-11-18T07:42:16.589Z,10.17
2022-11-18T07:44:21.526Z,10.20
2022-11-18T07:46:26.341Z,10.20
2022-11-18T07:48:30.025Z,10.21
2022-11-18T07:50:33.306Z,10.19
2022-11-18T07:52:36.559Z,10.15
2022-11-18T07:54:40.701Z,10.11
2022-11-18T07:56:43.990Z,10.13
2022-11-18T07:58:47.533Z,10.11
2022-11-18T08:00:51.972Z,10.14
2022-11-18T08:02:57.828Z,10.13
2022-11-18T08:05:03.782Z,10.15
2022-11-18T08:07:10.862Z,10.14
2022-11-18T08:09:14.203Z,10.15
2022-11-18T08:11:22.402Z,10.16
2022-11-18T08:13:29.485Z,10.18
2022-11-18T08:15:32.801Z,10.22
2022-11-18T08:17:37.597Z,10.22
2022-11-18T08:19:40.746Z,10.23
2022-11-18T08:21:45.297Z,10.23
2022-11-18T08:23:51.731Z,10.24
2022-11-18T08:26:03.127Z,10.28
2022-11-18T08:28:06.549Z,10.28
2022-11-18T08:30:11.135Z,10.30
2022-11-18T08:32:14.715Z,10.33
2022-11-18T08:34:19.192Z,10.34
2022-11-18T08:36:24.143Z,10.34
2022-11-18T08:38:27.398Z,10.37
2022-11-18T08:40:31.662Z,10.36
2022-11-18T08:42:37.788Z,10.38
2022-11-18T08:44:40.827Z,10.39
2022-11-18T08:46:45.566Z,10.40
2022-11-18T08:48:48.913Z,10.41
2022-11-18T08:50:54.936Z,10.41
2022-11-18T08:52:58.068Z,10.43
2022-11-18T08:55:02.946Z,10.46
2022-11-18T08:57:06.126Z,10.46
2022-11-18T08:59:09.336Z,10.47
2022-11-18T09:01:12.675Z,10.50
2022-11-18T09:03:15.878Z,10.50
2022-11-18T09:05:18.981Z,10.52
2022-11-18T09:07:23.510Z,10.52
2022-11-18T09:09:26.737Z,10.55
2022-11-18T09:11:29.797Z,10.57
2022-11-18T09:13:56.307Z,10.57
2022-11-18T09:15:59.147Z,10.58
2022-11-18T09:18:02.304Z,10.58
2022-11-18T09:20:06.150Z,10.61
2022-11-18T09:22:09.577Z,10.60
2022-11-18T09:24:14.013Z,10.60
2022-11-18T09:26:19.175Z,10.61
2022-11-18T09:28:22.194Z,10.61
2022-11-18T09:30:25.254Z,10.60
2022-11-18T09:32:28.329Z,10.60
2022-11-18T09:34:32.475Z,10.62
2022-11-18T09:36:35.451Z,10.63
2022-11-18T09:38:38.509Z,10.62
2022-11-18T09:40:49.761Z,10.65
2022-11-18T09:42:58.798Z,10.67
2022-11-18T09:45:13.842Z,10.65
2022-11-18T09:47:26.363Z,10.63
2022-11-18T09:49:32.160Z,10.63
2022-11-18T09:51:41.068Z,10.65
2022-11-18T09:53:45.767Z,10.67
2022-11-18T09:55:51.292Z,10.68
2022-11-18T09:57:56.951Z,10.70
2022-11-18T10:00:00.498Z,10.73
2022-11-18T10:02:09.350Z,10.76
2022-11-18T10:04:16.968Z,10.77
2022-11-18T10:06:25.242Z,10.79
2022-11-18T10:08:30.127Z,10.81
2022-11-18T10:10:46.650Z,10.81
2022-11-18T10:12:56.128Z,10.84
2022-11-18T10:15:09.207Z,10.87
2022-11-18T10:17:25.802Z,10.89
2022-11-18T10:19:33.750Z,10.92
2022-11-18T10:21:49.456Z,10.91
2022-11-18T10:23:54.870Z,10.91
2022-11-18T10:25:58.589Z,10.93
2022-11-18T10:28:18.072Z,10.91
2022-11-18T10:30:22.624Z,10.89
2022-11-18T10:32:25.733Z,10.86
2022-11-18T10:34:28.926Z,10.85
2022-11-18T10:36:34.187Z,10.84
2022-11-18T10:38:37.238Z,10.84
2022-11-18T10:40:45.374Z,10.84
2022-11-18T10:42:48.354Z,10.85
2022-11-18T10:44:52.856Z,10.86
2022-11-18T10:46:55.941Z,10.91
2022-11-18T10:49:17.370Z,10.94
2022-11-18T10:51:25.526Z,10.98
2022-11-18T10:53:32.248Z,11.01
2022-11-18T10:55:35.507Z,11.05
2022-11-18T10:57:43.396Z,11.08
2022-11-18T10:59:48.723Z,11.09
2022-11-18T11:02:05.375Z,11.11
2022-11-18T11:04:18.474Z,11.12
2022-11-18T11:06:33.918Z,11.12
2022-11-18T11:08:49.486Z,11.15
2022-11-18T11:10:55.772Z,11.16
2022-11-18T11:13:01.688Z,11.18
2022-11-18T11:15:07.681Z,11.24
2022-11-18T11:17:14.695Z,11.27
2022-11-18T11:19:21.226Z,11.26
2022-11-18T11:21:27.895Z,11.25
2022-11-18T11:23:33.770Z,11.25
2022-11-18T11:30:18.921Z,11.20
2022-11-18T11:32:27.944Z,11.19
2022-11-18T11:34:37.415Z,11.19
2022-11-18T11:36:46.499Z,11.17
2022-11-18T11:39:01.335Z,11.22
2022-11-18T11:50:03.230Z,11.42
2022-11-18T11:52:12.015Z,11.48
2022-11-18T11:54:45.657Z,11.51
2022-11-18T11:56:52.072Z,11.54
2022-11-18T11:59:22.137Z,11.56
2022-11-18T12:01:28.995Z,11.60
2022-11-18T12:03:51.437Z,11.59
2022-11-18T12:05:56.495Z,11.58
2022-11-18T12:08:01.700Z,11.60
2022-11-18T12:10:17.648Z,11.64
2022-11-18T12:12:35.988Z,11.71
2022-11-18T12:14:43.456Z,11.84
2022-11-18T12:16:48.507Z,11.98
2022-11-18T12:18:56.382Z,12.06
2022-11-18T12:21:00.819Z,12.10
2022-11-18T12:23:15.117Z,12.05
2022-11-18T12:25:44.734Z,12.08
2022-11-18T12:28:01.101Z,12.12
2022-11-18T12:30:05.365Z,12.20
2022-11-18T12:32:26.704Z,12.27
2022-11-18T12:34:36.218Z,12.27
2022-11-18T12:36:42.443Z,12.26
2022-11-18T12:38:45.659Z,12.28
2022-11-18T12:40:52.655Z,12.27
2022-11-18T12:43:13.800Z,12.30
2022-11-18T12:45:53.552Z,12.40
2022-11-18T12:47:59.583Z,12.50
2022-11-18T12:50:13.690Z,12.48
2022-11-18T12:52:49.674Z,12.51
2022-11-18T12:54:52.926Z,12.55
2022-11-18T12:56:57.171Z,12.56
2022-11-18T12:59:02.474Z,12.57
2022-11-18T13:01:07.828Z,12.57
2022-11-18T13:03:10.936Z,12.58
2022-11-18T13:05:21.115Z,12.64
2022-11-18T13:07:42.321Z,12.70
2022-11-18T13:09:47.139Z,12.70
2022-11-18T13:11:53.165Z,12.70
2022-11-18T13:14:10.493Z,12.69
2022-11-18T13:16:38.437Z,12.67
2022-11-18T13:18:51.626Z,12.66
2022-11-18T13:21:00.249Z,12.58
2022-11-18T13:23:22.210Z,12.44
2022-11-18T13:25:28.242Z,12.29
2022-11-18T13:27:51.125Z,12.22
2022-11-18T13:29:59.682Z,12.11
2022-11-18T13:32:18.155Z,12.04
2022-11-18T13:34:23.081Z,12.01
2022-11-18T13:36:27.139Z,12.00
2022-11-18T13:38:30.203Z,11.97
2022-11-18T13:41:04.253Z,11.90
2022-11-18T13:43:10.458Z,11.83
2022-11-18T13:45:14.484Z,11.79
2022-11-18T13:47:24.388Z,11.76
2022-11-18T13:49:34.310Z,11.76
2022-11-18T13:51:38.848Z,11.70
2022-11-18T13:53:43.450Z,11.67
2022-11-18T13:55:51.437Z,11.66
2022-11-18T13:58:00.797Z,11.66
2022-11-18T14:00:08.170Z,11.65
2022-11-18T14:02:14.420Z,11.64
2022-11-18T14:04:20.726Z,11.63
2022-11-18T14:06:28.290Z,11.62
2022-11-18T14:08:32.838Z,11.63
2022-11-18T14:10:42.589Z,11.62
2022-11-18T14:12:59.067Z,11.62
2022-11-18T14:15:16.172Z,11.59
2022-11-18T14:17:20.908Z,11.59
2022-11-18T14:19:30.381Z,11.60
2022-11-18T14:21:35.323Z,11.62
2022-11-18T14:23:38.698Z,11.60
2022-11-18T14:25:44.963Z,11.58
2022-11-18T14:27:52.310Z,11.54
2022-11-18T14:29:55.758Z,11.55
2022-11-18T14:32:14.952Z,11.52
2022-11-18T14:34:21.117Z,11.49
2022-11-18T14:36:24.183Z,11.45
2022-11-18T14:38:43.631Z,11.43
2022-11-18T14:40:56.942Z,11.45
2022-11-18T14:43:02.129Z,11.45
2022-11-18T14:45:05.805Z,11.43
2022-11-18T14:47:16.859Z,11.42
2022-11-18T14:49:23.540Z,11.42
2022-11-18T14:51:26.872Z,11.41
2022-11-18T14:53:34.775Z,11.40
2022-11-18T14:55:38.388Z,11.37
2022-11-18T14:57:41.623Z,11.37
2022-11-18T14:59:46.125Z,11.35
2022-11-18T15:01:49.808Z,11.36
2022-11-18T15:03:52.993Z,11.35
2022-11-18T15:05:56.185Z,11.34
2022-11-18T15:07:59.217Z,11.33
2022-11-18T15:10:02.280Z,11.31
2022-11-18T15:12:10.179Z,11.29
2022-11-18T15:14:18.804Z,11.28
2022-11-18T15:16:25.863Z,11.26
2022-11-18T15:18:28.951Z,11.26
2022-11-18T15:20:32.155Z,11.23
2022-11-18T15:22:35.544Z,11.19
2022-11-18T15:24:38.811Z,11.20
2022-11-18T15:26:44.197Z,11.18
2022-11-18T15:28:47.614Z,11.14
2022-11-18T15:30:50.841Z,11.09
2022-11-18T15:32:55.465Z,11.03
2022-11-18T15:34:58.572Z,10.99
2022-11-18T15:37:01.727Z,11.00
2022-11-18T15:39:04.940Z,10.94
2022-11-18T15:41:08.077Z,10.90
2022-11-18T15:43:11.137Z,10.87
2022-11-18T15:45:14.273Z,10.86
2022-11-18T15:47:17.390Z,10.86
2022-11-18T15:49:22.115Z,10.84
2022-11-18T15:51:26.035Z,10.82
2022-11-18T15:53:29.370Z,10.81
2022-11-18T15:55:32.384Z,10.80
2022-11-18T15:57:35.479Z,10.83
2022-11-18T15:59:38.584Z,10.84
2022-11-18T16:01:43.598Z,10.83
2022-11-18T16:03:46.659Z,10.83
2022-11-18T16:05:53.396Z,10.81
2022-11-18T16:07:56.544Z,10.81
2022-11-18T16:10:17.138Z,10.80
2022-11-18T16:12:37.742Z,10.78
2022-11-18T16:14:40.722Z,10.76
2022-11-18T16:16:44.662Z,10.74
2022-11-18T16:18:47.748Z,10.72
2022-11-18T16:20:58.618Z,10.70
2022-11-18T16:23:01.601Z,10.64
2022-11-18T16:25:05.180Z,10.62
2022-11-18T16:27:08.213Z,10.63
2022-11-18T16:29:15.607Z,10.63
2022-11-18T16:31:36.143Z,10.58
2022-11-18T16:33:39.434Z,10.56
2022-11-18T16:35:47.815Z,10.55
2022-11-18T16:37:52.230Z,10.55
2022-11-18T16:39:55.480Z,10.56
2022-11-18T16:42:07.480Z,10.55
2022-11-18T16:44:13.794Z,10.55
2022-11-18T16:46:16.765Z,10.55
2022-11-18T16:48:19.920Z,10.55
2022-11-18T16:50:23.017Z,10.53
2022-11-18T16:52:26.236Z,10.54
2022-11-18T16:54:32.084Z,10.57
2022-11-18T16:56:36.549Z,10.54
2022-11-18T16:58:39.542Z,10.54
2022-11-18T17:01:16.591Z,10.54
2022-11-18T17:03:06.106Z,10.53
2022-11-18T17:05:09.730Z,10.52
2022-11-18T17:07:13.113Z,10.52
2022-11-18T17:09:18.077Z,10.50
2022-11-18T17:11:23.034Z,10.49
2022-11-18T17:13:26.031Z,10.47
2022-11-18T17:15:29.104Z,10.47
2022-11-18T17:17:32.156Z,10.47
2022-11-18T17:19:35.255Z,10.45
2022-11-18T17:21:38.274Z,10.47
2022-11-18T17:23:42.169Z,10.48
2022-11-18T17:25:45.195Z,10.49
2022-11-18T17:27:49.633Z,10.51
2022-11-18T17:29:52.682Z,10.51
2022-11-18T17:31:55.763Z,10.52
2022-11-18T17:33:58.953Z,10.52
2022-11-18T17:36:02.349Z,10.54
2022-11-18T17:38:05.344Z,10.54
2022-11-18T17:40:10.056Z,10.54
2022-11-18T17:42:17.612Z,10.53
2022-11-18T17:44:22.152Z,10.52
2022-11-18T17:46:25.573Z,10.52
2022-11-18T17:48:29.970Z,10.51
2022-11-18T17:50:33.048Z,10.52
2022-11-18T17:52:36.161Z,10.53
2022-11-18T17:54:39.288Z,10.51
2022-11-18T17:56:42.487Z,10.50
2022-11-18T17:58:45.785Z,10.49
2022-11-18T18:00:51.068Z,10.48
2022-11-18T18:02:54.485Z,10.48
2022-11-18T18:04:58.182Z,10.49
2022-11-18T18:07:01.803Z,10.49
2022-11-18T18:09:05.174Z,10.47
2022-11-18T18:11:10.995Z,10.47
2022-11-18T18:13:31.982Z,10.49
2022-11-18T18:15:35.665Z,10.48
2022-11-18T18:17:40.351Z,10.49
2022-11-18T18:19:43.409Z,10.47
2022-11-18T18:21:46.780Z,10.48
2022-11-18T18:23:49.897Z,10.47
2022-11-18T18:25:53.052Z,10.48
2022-11-18T18:27:56.112Z,10.50
2022-11-18T18:29:59.183Z,10.51
2022-11-18T18:32:02.557Z,10.53
2022-11-18T18:34:07.551Z,10.52
2022-11-18T18:36:12.907Z,10.51
2022-11-18T18:38:16.111Z,10.51
2022-11-18T18:40:19.328Z,10.51
2022-11-18T18:42:25.927Z,10.54
2022-11-18T18:44:49.414Z,10.53
2022-11-18T18:46:51.526Z,10.49
2022-11-18T18:48:54.664Z,10.49
2022-11-18T18:51:05.331Z,10.51
2022-11-18T18:53:08.442Z,10.51
2022-11-18T18:55:11.549Z,10.52
2022-11-18T18:57:14.535Z,10.53
2022-11-18T18:59:17.578Z,10.54
2022-11-18T19:01:21.472Z,10.56
2022-11-18T19:03:24.625Z,10.58
2022-11-18T19:05:53.590Z,10.59
2022-11-18T19:07:53.445Z,10.60
2022-11-18T19:09:56.617Z,10.57
2022-11-18T19:12:17.240Z,10.57
2022-11-18T19:14:21.353Z,10.58
2022-11-18T19:16:24.534Z,10.58
2022-11-18T19:18:27.793Z,10.60
2022-11-18T19:20:36.861Z,10.60
2022-11-18T19:22:39.945Z,10.62
2022-11-18T19:24:52.157Z,10.62
2022-11-18T19:26:55.513Z,10.62
2022-11-18T19:28:59.272Z,10.61
2022-11-18T19:31:02.425Z,10.64
2022-11-18T19:33:05.887Z,10.62
2022-11-18T19:35:09.918Z,10.61
2022-11-18T19:37:13.418Z,10.59
2022-11-18T19:39:16.683Z,10.59
2022-11-18T19:41:21.256Z,10.61
2022-11-18T19:43:27.143Z,10.61
2022-11-18T19:45:30.173Z,10.60
2022-11-18T19:47:33.542Z,10.58
2022-11-18T19:49:36.703Z,10.60
2022-11-18T19:51:39.945Z,10.59
2022-11-18T19:53:43.785Z,10.60
2022-11-18T19:55:54.374Z,10.62
2022-11-18T19:57:58.873Z,10.59
2022-11-18T20:00:02.491Z,10.58
2022-11-18T20:02:12.671Z,10.56
2022-11-18T20:04:15.775Z,10.54
2022-11-18T20:06:19.800Z,10.51
2022-11-18T20:08:24.289Z,10.52
2022-11-18T20:10:27.435Z,10.54
2022-11-18T20:12:30.526Z,10.54
2022-11-18T20:14:35.209Z,10.54
2022-11-18T20:16:38.732Z,10.54
2022-11-18T20:18:42.386Z,10.52
2022-11-18T20:20:45.546Z,10.51
2022-11-18T20:22:48.648Z,10.51
2022-11-18T20:24:52.102Z,10.51
2022-11-18T20:26:55.290Z,10.51
2022-11-18T20:28:58.404Z,10.51
2022-11-18T20:31:03.130Z,10.52
2022-11-18T20:33:06.358Z,10.51
2022-11-18T20:35:10.505Z,10.50
2022-11-18T20:37:14.914Z,10.50
2022-11-18T20:39:18.650Z,10.44
2022-11-18T20:41:22.521Z,10.44
2022-11-18T20:43:24.662Z,10.40
2022-11-18T20:45:27.714Z,10.41
2022-11-18T20:47:32.127Z,10.42
2022-11-18T20:49:35.193Z,10.41
2022-11-18T20:51:38.212Z,10.41
2022-11-18T20:53:42.762Z,10.39
2022-11-18T20:55:49.442Z,10.39
2022-11-18T20:57:52.514Z,10.40
2022-11-18T20:59:55.704Z,10.41
2022-11-18T21:01:58.846Z,10.42
2022-11-18T21:04:04.504Z,10.43
2022-11-18T21:06:13.630Z,10.43
2022-11-18T21:08:17.565Z,10.43
2022-11-18T21:10:20.769Z,10.43
2022-11-18T21:12:23.882Z,10.43
2022-11-18T21:14:26.078Z,10.43
2022-11-18T21:16:29.335Z,10.42
2022-11-18T21:18:32.313Z,10.43
2022-11-18T21:20:54.404Z,10.44
2022-11-18T21:22:58.183Z,10.42
2022-11-18T21:25:01.274Z,10.42
2022-11-18T21:27:05.097Z,10.43
2022-11-18T21:29:09.762Z,10.42
2022-11-18T21:31:12.855Z,10.42
2022-11-18T21:33:16.035Z,10.42
2022-11-18T21:35:19.237Z,10.40
2022-11-18T21:37:23.710Z,10.40
2022-11-18T21:39:27.564Z,10.40
2022-11-18T21:41:31.143Z,10.39
2022-11-18T21:44:03.912Z,10.40
2022-11-18T21:46:01.570Z,10.41
2022-11-18T21:48:05.182Z,10.40
2022-11-18T21:50:09.230Z,10.40
2022-11-18T21:52:12.334Z,10.40
2022-11-18T21:54:18.237Z,10.39
2022-11-18T21:56:23.171Z,10.40
2022-11-18T21:58:26.330Z,10.42
2022-11-18T22:00:29.705Z,10.41
2022-11-18T22:02:32.870Z,10.43
2022-11-18T22:04:54.426Z,10.43
2022-11-18T22:06:57.626Z,10.43
2022-11-18T22:09:01.120Z,10.41
2022-11-18T22:11:06.244Z,10.36
2022-11-18T22:13:09.388Z,10.27
2022-11-18T22:15:12.521Z,10.21
2022-11-18T22:17:15.752Z,10.18
2022-11-18T22:19:19.135Z,10.17
2022-11-18T22:21:22.821Z,10.18
2022-11-18T22:23:27.459Z,10.20
2022-11-18T22:25:30.588Z,10.20
2022-11-18T22:27:35.108Z,10.21
2022-11-18T22:29:38.187Z,10.21
2022-11-18T22:31:41.178Z,10.22
2022-11-18T22:33:44.267Z,10.20
2022-11-18T22:35:47.533Z,10.21
2022-11-18T22:37:50.647Z,10.20
2022-11-18T22:39:53.767Z,10.19
2022-11-18T22:42:14.508Z,10.19
2022-11-18T22:44:18.880Z,10.18
2022-11-18T22:46:22.000Z,10.16
2022-11-18T22:48:25.319Z,10.14
2022-11-18T22:50:28.704Z,10.14
2022-11-18T22:52:32.339Z,10.14
2022-11-18T22:54:39.805Z,10.16
2022-11-18T22:56:43.433Z,10.14
2022-11-18T22:58:46.483Z,10.15
2022-11-18T23:00:50.899Z,10.15
2022-11-18T23:02:53.996Z,10.16
2022-11-18T23:04:57.205Z,10.16
2022-11-18T23:07:00.277Z,10.17
2022-11-18T23:09:03.500Z,10.15
2022-11-18T23:11:08.113Z,10.15
2022-11-18T23:13:31.493Z,10.17
2022-11-18T23:15:34.594Z,10.17
2022-11-18T23:17:38.938Z,10.18
2022-11-18T23:19:43.857Z,10.17
2022-11-18T23:21:47.421Z,10.15
2022-11-18T23:23:50.451Z,10.10
2022-11-18T23:25:53.472Z,9.96
2022-11-18T23:27:56.681Z,9.83
2022-11-18T23:29:59.789Z,9.73
2022-11-18T23:32:02.798Z,9.66
2022-11-18T23:34:07.252Z,9.60
2022-11-18T23:36:12.341Z,9.56
2022-11-18T23:38:15.370Z,9.56
2022-11-18T23:40:18.789Z,9.57
2022-11-18T23:42:21.876Z,9.57
2022-11-18T23:44:44.919Z,9.55
2022-11-18T23:46:47.975Z,9.52
2022-11-18T23:48:51.057Z,9.49
2022-11-18T23:50:56.194Z,9.52
2022-11-18T23:52:59.211Z,9.56
2022-11-18T23:55:02.206Z,9.60
2022-11-18T23:57:05.563Z,9.65
2022-11-18T23:59:08.942Z,9.67
